Time;durP1;ratioP1;P1;durP2;ratioP2;P2;SDS_P1;SDS_P2;PMS_P1;PMS_P2;Temp;Humidity;BMP_temperature;BMP_pressure;BME280_temperature;BME280_humidity;BME280_pressure;Samples;Min_cycle;Max_cycle;Signal;HPM_P1;HPM_P2
2021/08/29 00:01:59;;;;;;;0.55;0.30;;;14.90;99.90;;;;;;4952120;28;20193;-67
2021/08/29 00:04:25;;;;;;;0.22;0.22;;;14.80;99.90;;;;;;4947866;28;20194;-68
2021/08/29 00:06:52;;;;;;;0.63;0.30;;;14.80;99.90;;;;;;4953890;28;20317;-66
2021/08/29 00:09:17;;;;;;;0.30;0.30;;;14.80;99.90;;;;;;4951235;28;20549;-69
2021/08/29 00:11:43;;;;;;;2.60;0.50;;;14.80;99.90;;;;;;4958530;28;20191;-68
2021/08/29 00:14:09;;;;;;;0.40;0.40;;;14.80;99.90;;;;;;4955103;28;20260;-69
2021/08/29 00:16:34;;;;;;;0.30;0.30;;;14.90;99.90;;;;;;4955602;28;20597;-67
2021/08/29 00:19:00;;;;;;;0.60;0.30;;;14.90;99.90;;;;;;4960150;28;20182;-68
2021/08/29 00:21:26;;;;;;;0.30;0.30;;;14.80;99.90;;;;;;4949452;28;20285;-67
2021/08/29 00:23:51;;;;;;;0.60;0.30;;;14.80;99.90;;;;;;4948521;28;20244;-68
2021/08/29 00:26:17;;;;;;;0.60;0.30;;;14.80;99.90;;;;;;4950798;28;20967;-69
2021/08/29 00:28:43;;;;;;;0.30;0.30;;;14.80;99.90;;;;;;4948811;28;20201;-69
2021/08/29 00:31:08;;;;;;;0.73;0.50;;;14.80;99.90;;;;;;4956397;28;20189;-66
2021/08/29 00:33:34;;;;;;;0.40;0.40;;;14.80;99.90;;;;;;4948080;28;20189;-65
2021/08/29 00:36:00;;;;;;;0.55;0.43;;;14.80;99.90;;;;;;4950725;28;20230;-68
2021/08/29 00:38:26;;;;;;;0.40;0.40;;;14.80;99.90;;;;;;4965307;28;20280;-67
2021/08/29 00:40:52;;;;;;;0.80;0.57;;;14.80;99.90;;;;;;4951536;28;20205;-69
2021/08/29 00:43:21;;;;;;;0.50;0.50;;;14.90;99.90;;;;;;4948278;28;20610;-67
2021/08/29 00:45:47;;;;;;;0.40;0.40;;;14.90;99.90;;;;;;4949767;28;20644;-67
2021/08/29 00:48:14;;;;;;;0.40;0.40;;;14.80;99.90;;;;;;4958180;28;20189;-68
2021/08/29 00:50:44;;;;;;;0.40;0.40;;;14.80;99.90;;;;;;4952562;28;20332;-69
2021/08/29 00:53:14;;;;;;;1.27;0.63;;;14.80;99.90;;;;;;4971089;28;20193;-69
2021/08/29 00:55:40;;;;;;;1.08;0.60;;;14.80;99.90;;;;;;4952146;28;20191;-69
2021/08/29 00:58:06;;;;;;;0.50;0.50;;;14.70;99.90;;;;;;4948219;28;20209;-68
2021/08/29 01:00:40;;;;;;;0.60;0.60;;;14.70;99.90;;;;;;4952596;28;20213;-69
2021/08/29 01:03:10;;;;;;;0.70;0.57;;;14.70;99.90;;;;;;4948761;28;20180;-65
2021/08/29 01:05:43;;;;;;;0.70;0.70;;;14.80;99.90;;;;;;4953619;28;20321;-68
2021/08/29 01:08:12;;;;;;;0.73;0.63;;;14.80;99.90;;;;;;4953799;28;20185;-69
2021/08/29 01:10:58;;;;;;;0.63;0.57;;;14.70;99.90;;;;;;4952017;28;20189;-67
2021/08/29 01:13:27;;;;;;;1.00;0.77;;;14.80;99.90;;;;;;4948005;28;20193;-67
2021/08/29 01:15:57;;;;;;;1.15;1.05;;;14.80;99.90;;;;;;4956473;28;20685;-69
2021/08/29 01:18:24;;;;;;;0.88;0.80;;;14.70;99.90;;;;;;4950649;28;20186;-68
2021/08/29 01:21:09;;;;;;;1.15;1.05;;;14.70;99.90;;;;;;4947957;28;20211;-67
2021/08/29 01:23:37;;;;;;;1.42;1.00;;;14.70;99.90;;;;;;4954297;28;20186;-67
2021/08/29 01:26:13;;;;;;;0.80;0.80;;;14.60;99.90;;;;;;4951286;28;20244;-69
2021/08/29 01:28:57;;;;;;;1.20;1.10;;;14.60;99.90;;;;;;4947183;28;20279;-69
2021/08/29 01:31:25;;;;;;;1.23;1.13;;;14.60;99.90;;;;;;4950503;28;20573;-69
2021/08/29 01:33:52;;;;;;;1.30;1.20;;;14.70;99.90;;;;;;4947611;28;20601;-69
2021/08/29 01:36:19;;;;;;;1.20;1.10;;;14.70;99.90;;;;;;4951927;28;20720;-67
2021/08/29 01:38:46;;;;;;;1.20;1.10;;;14.60;99.90;;;;;;4956707;28;20197;-69
2021/08/29 01:41:15;;;;;;;1.45;1.35;;;14.60;99.90;;;;;;4959437;28;20636;-67
2021/08/29 01:43:41;;;;;;;1.27;1.17;;;14.70;99.90;;;;;;4949905;28;20196;-67
2021/08/29 01:46:08;;;;;;;2.38;1.20;;;14.70;99.90;;;;;;4951539;28;20305;-69
2021/08/29 01:48:37;;;;;;;3.78;1.70;;;14.60;99.90;;;;;;4950762;28;20642;-68
2021/08/29 01:51:03;;;;;;;1.40;1.10;;;14.60;99.90;;;;;;4950601;28;20284;-68
2021/08/29 01:53:29;;;;;;;1.50;1.10;;;14.70;99.90;;;;;;4948451;28;20316;-67
2021/08/29 01:55:55;;;;;;;0.98;0.93;;;14.70;99.90;;;;;;4953610;28;20627;-67
2021/08/29 01:58:21;;;;;;;1.48;1.08;;;14.60;99.90;;;;;;4951265;28;20189;-66
2021/08/29 02:00:53;;;;;;;1.40;1.27;;;14.60;99.90;;;;;;4953660;28;20259;-68
2021/08/29 02:03:20;;;;;;;1.98;1.10;;;14.70;99.90;;;;;;4951266;28;20620;-68
2021/08/29 02:05:48;;;;;;;1.48;1.38;;;14.60;99.90;;;;;;4952109;28;20196;-69
2021/08/29 02:08:16;;;;;;;1.40;1.30;;;14.60;99.90;;;;;;4949978;28;20190;-67
2021/08/29 02:10:44;;;;;;;2.58;1.23;;;14.50;99.90;;;;;;4956486;28;20231;-68
2021/08/29 02:13:11;;;;;;;1.40;1.30;;;14.50;99.90;;;;;;4958901;28;20176;-67
2021/08/29 02:15:44;;;;;;;1.00;0.95;;;14.50;99.90;;;;;;4956089;28;20634;-69
2021/08/29 02:18:12;;;;;;;1.02;0.93;;;14.50;99.90;;;;;;4952730;28;20190;-68
2021/08/29 02:20:39;;;;;;;1.70;1.45;;;14.50;99.90;;;;;;4952520;28;20328;-65
2021/08/29 02:23:05;;;;;;;1.35;1.25;;;14.50;99.90;;;;;;4946171;28;20209;-65
2021/08/29 02:25:32;;;;;;;1.55;1.30;;;14.50;99.90;;;;;;4948579;28;20181;-67
2021/08/29 02:27:58;;;;;;;1.35;1.15;;;14.50;99.90;;;;;;4968445;28;20545;-67
2021/08/29 02:30:25;;;;;;;1.50;1.40;;;14.50;99.90;;;;;;4946638;28;20657;-65
2021/08/29 02:32:53;;;;;;;2.15;1.45;;;14.40;99.90;;;;;;4946979;28;20671;-67
2021/08/29 02:35:20;;;;;;;1.92;1.38;;;14.40;99.90;;;;;;4953679;28;20766;-65
2021/08/29 02:37:47;;;;;;;1.95;1.63;;;14.40;99.90;;;;;;4953758;28;20216;-67
2021/08/29 02:40:15;;;;;;;3.08;1.60;;;14.40;99.90;;;;;;4957286;28;20589;-67
2021/08/29 02:42:40;;;;;;;2.60;1.50;;;14.40;99.90;;;;;;4958608;28;20193;-69
2021/08/29 02:45:09;;;;;;;1.40;1.30;;;14.50;99.90;;;;;;4950328;28;20662;-69
2021/08/29 02:47:35;;;;;;;2.50;1.50;;;14.50;99.90;;;;;;4963570;28;20197;-66
2021/08/29 02:50:02;;;;;;;2.38;1.10;;;14.50;99.90;;;;;;4954203;28;20221;-70
2021/08/29 02:52:28;;;;;;;1.33;1.23;;;14.50;99.90;;;;;;4954848;28;20185;-69
2021/08/29 02:54:57;;;;;;;2.00;1.83;;;14.50;99.90;;;;;;4972152;28;20212;-69
2021/08/29 02:57:30;;;;;;;1.30;1.20;;;14.50;99.90;;;;;;4951664;28;20228;-66
2021/08/29 02:59:55;;;;;;;1.60;1.50;;;14.50;99.90;;;;;;4954914;28;20238;-67
2021/08/29 03:02:21;;;;;;;1.75;1.65;;;14.50;99.90;;;;;;4953965;28;20239;-67
2021/08/29 03:04:47;;;;;;;1.50;1.40;;;14.50;99.90;;;;;;4950210;28;20266;-68
2021/08/29 03:07:12;;;;;;;2.50;1.65;;;14.50;99.90;;;;;;4950166;28;20213;-69
2021/08/29 03:09:38;;;;;;;2.22;1.98;;;14.60;99.90;;;;;;4949961;28;20215;-68
2021/08/29 03:12:09;;;;;;;1.70;1.60;;;14.50;99.90;;;;;;4949941;28;20284;-65
2021/08/29 03:14:36;;;;;;;1.65;1.55;;;14.50;99.90;;;;;;4949974;28;20193;-69
2021/08/29 03:17:03;;;;;;;1.58;1.48;;;14.50;99.90;;;;;;4959611;28;20213;-69
2021/08/29 03:19:29;;;;;;;1.92;1.70;;;14.50;99.90;;;;;;4957262;28;20246;-69
2021/08/29 03:21:55;;;;;;;1.73;1.63;;;14.40;99.90;;;;;;4958592;28;20178;-68
2021/08/29 03:24:22;;;;;;;1.58;1.48;;;14.50;99.90;;;;;;4953288;28;20188;-69
2021/08/29 03:26:48;;;;;;;2.28;1.83;;;14.50;99.90;;;;;;4957397;28;20196;-66
2021/08/29 03:29:14;;;;;;;2.05;1.85;;;14.50;99.90;;;;;;4949436;28;20209;-67
2021/08/29 03:31:40;;;;;;;2.20;2.08;;;14.50;99.90;;;;;;4949119;28;20661;-69
2021/08/29 03:34:07;;;;;;;3.25;2.80;;;14.50;99.90;;;;;;4950575;28;20186;-66
2021/08/29 03:36:34;;;;;;;2.22;2.08;;;14.40;99.90;;;;;;4949543;28;20445;-68
2021/08/29 03:39:00;;;;;;;4.20;2.17;;;14.40;99.90;;;;;;4949136;28;20196;-67
2021/08/29 03:41:29;;;;;;;2.28;2.10;;;14.40;99.90;;;;;;4952301;28;20209;-66
2021/08/29 03:43:54;;;;;;;2.35;2.15;;;14.40;99.90;;;;;;4949205;28;20228;-68
2021/08/29 03:46:22;;;;;;;2.45;2.25;;;14.50;99.90;;;;;;4952590;28;20245;-68
2021/08/29 03:48:48;;;;;;;2.08;1.88;;;14.60;99.90;;;;;;4954301;28;20207;-67
2021/08/29 03:51:15;;;;;;;2.30;2.10;;;14.50;99.90;;;;;;4950367;28;20553;-66
2021/08/29 03:53:41;;;;;;;2.17;1.77;;;14.50;99.90;;;;;;4956064;28;20217;-67
2021/08/29 03:56:08;;;;;;;2.17;1.95;;;14.50;99.90;;;;;;4953332;28;20237;-66
2021/08/29 03:58:35;;;;;;;1.90;1.80;;;14.40;99.90;;;;;;4948621;28;20249;-69
2021/08/29 04:01:02;;;;;;;2.50;2.17;;;14.40;99.90;;;;;;4951604;28;20201;-69
2021/08/29 04:03:28;;;;;;;1.73;1.63;;;14.40;99.90;;;;;;4959777;28;20264;-66
2021/08/29 04:05:55;;;;;;;2.60;2.40;;;14.40;99.90;;;;;;4949645;28;20782;-67
2021/08/29 04:08:36;;;;;;;2.10;1.90;;;14.50;99.90;;;;;;4954403;28;20188;-68
2021/08/29 04:11:02;;;;;;;2.30;2.10;;;14.40;99.90;;;;;;4954937;28;20280;-68
2021/08/29 04:13:30;;;;;;;2.38;2.17;;;14.40;99.90;;;;;;4952376;28;20247;-69
2021/08/29 04:15:56;;;;;;;2.30;2.05;;;14.50;99.90;;;;;;4951068;28;20193;-68
2021/08/29 04:18:23;;;;;;;2.92;2.63;;;14.50;99.90;;;;;;4953855;28;20197;-67
2021/08/29 04:20:50;;;;;;;3.45;2.78;;;14.50;99.90;;;;;;4955598;28;20208;-68
2021/08/29 04:23:16;;;;;;;2.58;2.38;;;14.50;99.90;;;;;;4957147;28;20201;-69
2021/08/29 04:25:42;;;;;;;2.35;2.15;;;14.50;99.90;;;;;;4948789;28;20224;-69
2021/08/29 04:28:09;;;;;;;3.10;2.80;;;14.50;99.90;;;;;;4948544;28;20254;-69
2021/08/29 04:30:35;;;;;;;2.10;2.00;;;14.40;99.90;;;;;;4955849;28;20189;-68
2021/08/29 04:33:00;;;;;;;2.55;2.35;;;14.40;99.90;;;;;;4953182;28;20767;-69
2021/08/29 04:35:26;;;;;;;2.47;2.28;;;14.40;99.90;;;;;;4948591;28;20269;-69
2021/08/29 04:37:52;;;;;;;2.67;2.30;;;14.40;99.90;;;;;;4950494;28;20208;-68
2021/08/29 04:40:18;;;;;;;2.85;2.30;;;14.40;99.90;;;;;;4956695;28;20200;-69
2021/08/29 04:42:44;;;;;;;2.70;2.50;;;14.40;99.90;;;;;;4956341;28;20604;-68
2021/08/29 04:45:11;;;;;;;2.63;2.42;;;14.50;99.90;;;;;;4955158;28;20186;-67
2021/08/29 04:47:37;;;;;;;2.65;2.30;;;14.40;99.90;;;;;;4949333;28;20600;-70
2021/08/29 04:50:04;;;;;;;2.72;2.53;;;14.40;99.90;;;;;;4954700;28;20198;-67
2021/08/29 04:52:30;;;;;;;2.72;2.50;;;14.40;99.90;;;;;;4954966;28;20186;-69
2021/08/29 04:54:55;;;;;;;2.63;2.42;;;14.40;99.90;;;;;;4954645;28;20189;-65
2021/08/29 04:57:21;;;;;;;3.10;2.60;;;14.40;99.90;;;;;;4950259;28;20684;-70
2021/08/29 04:59:46;;;;;;;3.03;2.70;;;14.40;99.90;;;;;;4955069;28;20220;-67
2021/08/29 05:02:12;;;;;;;3.28;2.97;;;14.50;99.90;;;;;;4952334;28;20652;-65
2021/08/29 05:04:38;;;;;;;3.15;2.85;;;14.50;99.90;;;;;;4951020;28;20193;-65
2021/08/29 05:07:04;;;;;;;2.63;2.42;;;14.40;99.90;;;;;;4956862;28;20205;-65
2021/08/29 05:09:29;;;;;;;3.42;2.75;;;14.50;99.90;;;;;;4948436;28;20324;-68
2021/08/29 05:11:55;;;;;;;2.78;2.55;;;14.50;99.90;;;;;;4947325;28;20276;-68
2021/08/29 05:14:20;;;;;;;3.17;2.88;;;14.50;99.90;;;;;;4956651;28;20181;-67
2021/08/29 05:16:46;;;;;;;3.33;3.03;;;14.60;99.90;;;;;;4951739;28;20216;-69
2021/08/29 05:19:11;;;;;;;3.38;2.42;;;14.50;99.90;;;;;;4953341;28;20660;-68
2021/08/29 05:21:37;;;;;;;3.08;2.88;;;14.50;99.90;;;;;;4948607;28;20224;-67
2021/08/29 05:24:03;;;;;;;2.58;2.38;;;14.50;99.90;;;;;;4957105;28;20189;-67
2021/08/29 05:26:28;;;;;;;2.75;2.55;;;14.50;99.90;;;;;;4952409;28;20202;-68
2021/08/29 05:28:54;;;;;;;2.47;2.28;;;14.50;99.90;;;;;;4957296;28;20770;-68
2021/08/29 05:31:20;;;;;;;2.42;2.20;;;14.60;99.90;;;;;;4960568;28;20200;-66
2021/08/29 05:33:45;;;;;;;2.63;2.20;;;14.60;99.90;;;;;;4948718;28;20198;-67
2021/08/29 05:36:11;;;;;;;2.60;2.30;;;14.50;99.90;;;;;;4954751;28;20227;-66
2021/08/29 05:38:37;;;;;;;2.22;2.03;;;14.50;99.90;;;;;;4955700;28;20193;-68
2021/08/29 05:41:02;;;;;;;2.45;2.13;;;14.60;99.90;;;;;;4947619;28;20247;-67
2021/08/29 05:43:28;;;;;;;2.13;1.92;;;14.60;99.90;;;;;;4946544;28;20372;-69
2021/08/29 05:45:53;;;;;;;2.00;1.80;;;14.60;99.90;;;;;;4956643;28;20721;-69
2021/08/29 05:48:19;;;;;;;1.73;1.63;;;14.50;99.90;;;;;;4948473;28;20617;-67
2021/08/29 05:50:45;;;;;;;1.80;1.70;;;14.60;99.90;;;;;;4948496;28;20244;-68
2021/08/29 05:53:10;;;;;;;1.92;1.80;;;14.60;99.90;;;;;;4955970;28;20189;-67
2021/08/29 05:55:48;;;;;;;2.00;1.80;;;14.70;99.90;;;;;;4977107;23;20399;-78
2021/08/29 05:58:16;;;;;;;2.00;1.80;;;14.70;99.90;;;;;;4965845;28;20226;-80
2021/08/29 06:01:00;;;;;;;2.10;1.60;;;14.70;99.90;;;;;;4967371;28;20231;-79
2021/08/29 06:03:48;;;;;;;;;;;;;;;;;;;;;
2021/08/29 06:10:05;;;;;;;4.82;1.98;;;14.70;99.90;;;;;;4967106;28;20232;-79
2021/08/29 06:13:22;;;;;;;1.92;1.73;;;14.70;99.90;;;;;;4966131;28;20200;-80
2021/08/29 06:16:14;;;;;;;1.98;1.83;;;14.70;99.90;;;;;;4981800;28;20188;-78
2021/08/29 06:18:50;;;;;;;2.03;1.80;;;14.80;99.90;;;;;;4965924;28;20181;-79
2021/08/29 06:22:06;;;;;;;3.22;1.70;;;14.70;99.90;;;;;;4960920;28;20224;-80
2021/08/29 06:24:57;;;;;;;2.03;1.70;;;14.60;99.90;;;;;;4973767;28;20289;-79
2021/08/29 06:28:03;;;;;;;2.05;1.92;;;14.70;99.90;;;;;;4967901;28;20734;-79
2021/08/29 06:30:54;;;;;;;2.17;1.98;;;14.70;99.90;;;;;;4965689;28;20212;-79
2021/08/29 06:37:08;;;;;;;2.13;1.92;;;14.80;99.90;;;;;;4968362;28;20248;-79
2021/08/29 06:40:08;;;;;;;2.03;1.83;;;14.90;99.90;;;;;;4962795;28;20244;-79
2021/08/29 06:46:16;;;;;;;1.95;1.70;;;14.90;99.90;;;;;;4936541;28;20205;-79
2021/08/29 06:49:22;;;;;;;1.70;1.60;;;15.00;99.90;;;;;;4938837;28;20201;-79
2021/08/29 06:51:59;;;;;;;3.90;1.90;;;15.00;99.90;;;;;;4981554;28;20259;-79
2021/08/29 06:54:25;;;;;;;2.28;2.08;;;15.00;99.90;;;;;;4965899;28;20710;-79
2021/08/29 06:56:53;;;;;;;4.05;2.28;;;15.00;99.90;;;;;;4966479;28;20188;-79
2021/08/29 06:59:21;;;;;;;2.05;1.85;;;15.00;99.90;;;;;;4965695;28;20205;-80
2021/08/29 07:01:47;;;;;;;1.67;1.58;;;15.10;99.90;;;;;;4966683;28;20264;-77
2021/08/29 07:04:13;;;;;;;2.00;1.80;;;15.10;99.90;;;;;;4965904;28;20355;-77
2021/08/29 07:06:38;;;;;;;1.80;1.70;;;15.00;99.90;;;;;;4966280;28;20244;-77
2021/08/29 07:09:04;;;;;;;1.75;1.65;;;15.00;99.90;;;;;;4964678;28;20645;-78
2021/08/29 07:11:30;;;;;;;1.95;1.75;;;15.10;99.90;;;;;;4962285;28;20659;-77
2021/08/29 07:13:55;;;;;;;1.95;1.83;;;15.10;99.90;;;;;;4962085;28;20239;-78
2021/08/29 07:16:21;;;;;;;3.22;1.70;;;15.20;99.90;;;;;;4961863;28;20185;-77
2021/08/29 07:18:47;;;;;;;1.65;1.55;;;15.00;99.90;;;;;;4967019;28;20676;-78
2021/08/29 07:21:12;;;;;;;2.00;1.90;;;14.90;99.90;;;;;;4970413;28;20211;-78
2021/08/29 07:23:38;;;;;;;2.03;1.83;;;14.80;99.90;;;;;;4969031;28;20185;-77
2021/08/29 07:26:04;;;;;;;2.08;1.88;;;14.80;99.90;;;;;;4968834;28;20185;-77
2021/08/29 07:28:29;;;;;;;2.85;1.90;;;14.80;99.90;;;;;;4970151;28;20466;-77
2021/08/29 07:30:55;;;;;;;2.05;1.88;;;14.80;99.90;;;;;;4968099;28;20272;-77
2021/08/29 07:33:21;;;;;;;1.90;1.65;;;14.80;99.90;;;;;;4967317;28;20185;-77
2021/08/29 07:35:46;;;;;;;1.60;1.40;;;14.80;99.90;;;;;;4968677;28;20437;-78
2021/08/29 07:38:12;;;;;;;1.58;1.48;;;14.80;99.90;;;;;;4969785;28;20193;-79
2021/08/29 07:40:38;;;;;;;1.30;1.20;;;14.80;99.90;;;;;;4967751;28;20219;-77
2021/08/29 07:43:03;;;;;;;1.73;1.35;;;14.90;99.90;;;;;;4968619;28;20200;-78
2021/08/29 07:45:29;;;;;;;1.73;1.42;;;15.00;99.90;;;;;;4969630;28;20734;-78
2021/08/29 07:47:55;;;;;;;1.60;1.33;;;15.10;99.90;;;;;;4968294;28;20231;-77
2021/08/29 07:50:22;;;;;;;1.23;1.13;;;15.30;99.90;;;;;;4969276;28;20284;-78
2021/08/29 07:52:48;;;;;;;1.77;1.35;;;15.50;99.90;;;;;;4969064;28;20189;-77
2021/08/29 07:55:14;;;;;;;1.17;1.08;;;15.40;99.90;;;;;;4968186;28;21024;-77
2021/08/29 07:57:40;;;;;;;0.70;0.70;;;15.50;99.90;;;;;;4965515;28;20650;-77
2021/08/29 08:00:06;;;;;;;1.35;0.98;;;15.70;99.90;;;;;;4966014;28;20209;-78
2021/08/29 08:02:32;;;;;;;3.78;0.70;;;15.80;99.90;;;;;;4967887;28;20232;-77
2021/08/29 08:04:58;;;;;;;1.00;0.70;;;15.80;99.90;;;;;;4964148;28;20215;-78
2021/08/29 08:07:24;;;;;;;0.70;0.70;;;16.00;99.90;;;;;;4965136;28;20234;-78
2021/08/29 08:09:49;;;;;;;1.00;0.90;;;16.30;99.90;;;;;;4980693;28;20207;-77
2021/08/29 08:12:15;;;;;;;0.90;0.60;;;16.40;99.90;;;;;;4968342;28;20193;-78
2021/08/29 08:14:41;;;;;;;0.60;0.60;;;16.50;99.90;;;;;;4967630;28;20336;-79
2021/08/29 08:17:07;;;;;;;0.65;0.65;;;16.70;99.90;;;;;;4967679;28;20513;-78
2021/08/29 08:19:33;;;;;;;1.75;0.60;;;16.80;99.90;;;;;;4965879;28;20204;-77
2021/08/29 08:22:00;;;;;;;0.98;0.50;;;16.70;99.90;;;;;;4965294;28;20181;-78
2021/08/29 08:24:26;;;;;;;0.68;0.65;;;16.50;99.90;;;;;;4955547;28;20178;-78
2021/08/29 08:26:51;;;;;;;0.40;0.40;;;16.30;99.90;;;;;;4964282;28;20208;-77
2021/08/29 08:29:17;;;;;;;0.40;0.40;;;16.10;99.90;;;;;;4966756;28;20216;-78
2021/08/29 08:31:43;;;;;;;0.40;0.40;;;16.10;99.90;;;;;;4964152;28;20201;-77
2021/08/29 08:34:08;;;;;;;0.50;0.50;;;16.00;99.90;;;;;;4962208;28;20364;-78
2021/08/29 08:36:34;;;;;;;0.55;0.55;;;16.10;99.90;;;;;;4968904;28;20184;-78
2021/08/29 08:39:00;;;;;;;0.40;0.40;;;16.10;99.90;;;;;;4964979;28;20711;-78
2021/08/29 08:41:26;;;;;;;0.50;0.45;;;16.20;99.90;;;;;;4966583;28;20303;-78
2021/08/29 08:43:52;;;;;;;0.65;0.57;;;16.30;99.90;;;;;;4966069;28;20181;-77
2021/08/29 08:46:22;;;;;;;0.60;0.50;;;16.30;99.90;;;;;;4965998;28;20216;-78
2021/08/29 08:48:51;;;;;;;0.35;0.35;;;16.20;99.90;;;;;;4966465;28;20280;-78
2021/08/29 08:51:23;;;;;;;0.40;0.40;;;16.20;99.90;;;;;;4966485;28;20212;-77
2021/08/29 08:53:52;;;;;;;0.40;0.40;;;16.20;99.90;;;;;;4966492;28;20191;-78
2021/08/29 08:56:19;;;;;;;0.30;0.30;;;16.30;99.90;;;;;;4967393;28;20205;-78
2021/08/29 08:58:46;;;;;;;0.40;0.40;;;16.30;99.90;;;;;;4969672;28;21048;-78
2021/08/29 09:01:13;;;;;;;0.45;0.45;;;16.30;99.90;;;;;;4968838;28;20235;-78
2021/08/29 09:03:39;;;;;;;0.30;0.30;;;16.30;99.90;;;;;;4970759;28;20195;-78
2021/08/29 09:06:06;;;;;;;0.40;0.40;;;16.20;99.90;;;;;;4968918;28;20184;-79
2021/08/29 09:08:36;;;;;;;0.55;0.52;;;16.20;99.90;;;;;;4969300;28;20945;-79
2021/08/29 09:11:03;;;;;;;0.50;0.50;;;16.10;99.90;;;;;;4977669;28;20188;-78
2021/08/29 09:14:04;;;;;;;2.08;0.73;;;16.20;99.90;;;;;;4969721;28;20199;-77
2021/08/29 09:16:30;;;;;;;0.50;0.50;;;16.40;99.90;;;;;;4911451;29;20197;-78
2021/08/29 09:19:02;;;;;;;1.25;0.65;;;16.50;99.90;;;;;;4961008;28;20217;-78
2021/08/29 09:21:36;;;;;;;0.45;0.45;;;16.60;99.90;;;;;;4967875;28;20316;-78
2021/08/29 09:24:09;;;;;;;0.40;0.40;;;16.80;99.90;;;;;;4968181;28;20173;-78
2021/08/29 09:26:41;;;;;;;0.50;0.50;;;16.80;99.90;;;;;;4968407;28;20268;-77
2021/08/29 09:29:15;;;;;;;0.50;0.50;;;16.90;99.90;;;;;;4970385;28;20651;-78
2021/08/29 09:31:44;;;;;;;0.50;0.50;;;16.80;99.90;;;;;;4968864;28;20255;-78
2021/08/29 09:34:10;;;;;;;0.50;0.47;;;16.90;99.90;;;;;;4969882;28;21073;-78
2021/08/29 09:36:38;;;;;;;0.70;0.70;;;16.80;99.90;;;;;;4968468;28;20651;-79
2021/08/29 09:39:17;;;;;;;0.55;0.55;;;16.90;99.90;;;;;;4969283;28;20286;-78
2021/08/29 09:41:44;;;;;;;0.88;0.63;;;16.80;99.90;;;;;;4968151;28;20212;-78
2021/08/29 09:44:15;;;;;;;0.63;0.60;;;16.60;99.90;;;;;;4968730;28;20185;-78
2021/08/29 09:46:58;;;;;;;0.50;0.50;;;16.60;99.90;;;;;;4970414;28;20188;-79
2021/08/29 09:49:29;;;;;;;0.50;0.50;;;16.70;99.90;;;;;;4969403;28;20208;-79
2021/08/29 09:51:57;;;;;;;0.50;0.50;;;16.70;99.90;;;;;;4967168;28;20646;-79
2021/08/29 09:54:42;;;;;;;0.50;0.50;;;16.60;99.90;;;;;;4970079;28;20181;-79
2021/08/29 09:57:10;;;;;;;1.95;0.70;;;16.70;99.90;;;;;;4968825;28;20267;-80
2021/08/29 09:59:47;;;;;;;2.10;0.80;;;16.70;99.90;;;;;;4965751;28;20210;-79
2021/08/29 10:02:25;;;;;;;0.77;0.70;;;16.70;99.90;;;;;;4967929;28;20200;-78
2021/08/29 10:05:14;;;;;;;0.90;0.68;;;16.80;99.90;;;;;;4966492;28;20974;-78
2021/08/29 10:08:00;;;;;;;0.50;0.50;;;16.90;99.90;;;;;;4965782;28;20659;-79
2021/08/29 10:10:28;;;;;;;0.45;0.45;;;17.10;99.90;;;;;;4967210;28;20222;-78
2021/08/29 10:12:55;;;;;;;0.55;0.55;;;17.40;99.90;;;;;;4965240;28;20275;-79
2021/08/29 10:15:21;;;;;;;0.50;0.50;;;17.60;99.90;;;;;;4981300;28;20191;-79
2021/08/29 10:17:50;;;;;;;0.70;0.60;;;17.90;99.90;;;;;;4965578;28;20193;-78
2021/08/29 10:20:20;;;;;;;0.50;0.50;;;17.90;99.90;;;;;;4966323;28;20213;-79
2021/08/29 10:22:47;;;;;;;0.65;0.50;;;17.90;99.90;;;;;;4967580;28;20185;-77
2021/08/29 10:25:15;;;;;;;1.50;0.70;;;17.80;99.90;;;;;;4964976;28;20549;-79
2021/08/29 10:27:46;;;;;;;1.63;0.82;;;17.80;99.90;;;;;;4965051;28;20191;-79
2021/08/29 10:30:12;;;;;;;0.80;0.70;;;17.70;99.90;;;;;;4958240;28;20208;-78
2021/08/29 10:32:46;;;;;;;0.70;0.70;;;17.80;99.90;;;;;;4963144;28;20193;-77
2021/08/29 10:35:13;;;;;;;0.80;0.80;;;18.10;99.90;;;;;;4964726;28;20201;-79
2021/08/29 10:37:42;;;;;;;0.88;0.68;;;18.10;99.90;;;;;;4964935;28;20200;-77
2021/08/29 10:40:09;;;;;;;0.52;0.50;;;18.10;99.90;;;;;;4965232;28;20215;-78
2021/08/29 10:42:39;;;;;;;0.45;0.45;;;18.00;99.90;;;;;;4965151;28;20195;-78
2021/08/29 10:45:05;;;;;;;0.63;0.63;;;18.10;99.90;;;;;;4970278;28;20619;-79
2021/08/29 10:47:32;;;;;;;0.60;0.55;;;18.00;99.90;;;;;;4964916;28;20184;-78
2021/08/29 10:49:59;;;;;;;0.70;0.70;;;18.00;99.90;;;;;;4963349;28;20252;-78
2021/08/29 10:52:32;;;;;;;0.80;0.80;;;17.90;99.90;;;;;;4964745;28;20185;-78
2021/08/29 10:55:08;;;;;;;0.77;0.77;;;18.20;99.90;;;;;;4966742;28;20208;-77
2021/08/29 10:57:36;;;;;;;0.60;0.60;;;18.60;99.90;;;;;;4982676;28;20203;-79
2021/08/29 11:00:13;;;;;;;0.88;0.80;;;18.80;99.90;;;;;;4968937;28;20219;-80
2021/08/29 11:02:48;;;;;;;0.60;0.60;;;18.70;99.90;;;;;;4966856;28;20180;-79
2021/08/29 11:05:33;;;;;;;0.60;0.57;;;18.50;99.90;;;;;;4968337;28;20187;-79
2021/08/29 11:07:59;;;;;;;0.50;0.50;;;18.20;99.90;;;;;;4964973;28;20191;-78
2021/08/29 11:10:51;;;;;;;1.83;0.68;;;18.10;99.90;;;;;;4950795;28;20205;-78
2021/08/29 11:13:32;;;;;;;0.60;0.60;;;18.30;99.90;;;;;;4963520;28;20232;-78
2021/08/29 11:16:12;;;;;;;0.60;0.60;;;18.20;99.90;;;;;;4967388;28;20189;-79
2021/08/29 11:19:02;;;;;;;0.63;0.50;;;18.40;99.90;;;;;;4967054;28;20586;-78
2021/08/29 11:21:54;;;;;;;0.40;0.40;;;18.70;99.90;;;;;;4965833;28;20216;-79
2021/08/29 11:24:45;;;;;;;0.52;0.52;;;19.00;99.90;;;;;;4967042;28;20192;-78
2021/08/29 11:27:33;;;;;;;1.98;0.52;;;19.00;99.90;;;;;;4968780;28;20535;-79
2021/08/29 11:29:59;;;;;;;0.50;0.50;;;19.10;99.90;;;;;;4968262;28;20576;-79
2021/08/29 11:32:43;;;;;;;0.50;0.50;;;19.20;99.90;;;;;;4965406;28;20185;-79
2021/08/29 11:35:11;;;;;;;0.60;0.60;;;19.20;99.90;;;;;;4965191;28;20191;-80
2021/08/29 11:37:37;;;;;;;0.52;0.50;;;19.30;99.90;;;;;;4965466;28;20561;-79
2021/08/29 11:40:06;;;;;;;0.40;0.40;;;19.40;99.90;;;;;;4966817;28;20210;-79
2021/08/29 11:42:33;;;;;;;0.40;0.40;;;19.00;99.90;;;;;;4968736;28;20279;-79
2021/08/29 11:44:59;;;;;;;0.45;0.45;;;18.70;99.90;;;;;;4968064;28;20590;-79
2021/08/29 11:47:39;;;;;;;0.40;0.40;;;18.50;99.90;;;;;;4969951;28;20271;-80
2021/08/29 11:50:07;;;;;;;0.40;0.40;;;18.50;99.90;;;;;;4981765;28;21115;-78
2021/08/29 11:52:36;;;;;;;0.82;0.50;;;18.80;99.90;;;;;;4965858;28;20189;-78
2021/08/29 11:55:08;;;;;;;0.63;0.63;;;19.40;99.90;;;;;;4967107;28;20216;-79
2021/08/29 11:57:48;;;;;;;0.50;0.50;;;19.50;99.90;;;;;;4969385;28;20706;-78
2021/08/29 12:00:14;;;;;;;0.68;0.68;;;19.60;99.90;;;;;;4984850;28;20234;-80
2021/08/29 12:02:44;;;;;;;1.05;0.70;;;19.50;99.90;;;;;;4968708;28;20185;-80
2021/08/29 12:05:15;;;;;;;1.27;0.55;;;19.30;99.90;;;;;;4970452;28;20425;-80
2021/08/29 12:07:47;;;;;;;0.55;0.55;;;18.90;99.90;;;;;;4969279;28;20176;-78
2021/08/29 12:10:15;;;;;;;0.65;0.65;;;18.50;99.90;;;;;;4967250;28;20566;-79
2021/08/29 12:12:45;;;;;;;0.65;0.65;;;18.30;99.90;;;;;;4967202;28;20276;-78
2021/08/29 12:15:12;;;;;;;0.60;0.60;;;18.20;99.90;;;;;;4970343;28;20180;-79
2021/08/29 12:17:40;;;;;;;0.65;0.65;;;18.40;99.90;;;;;;4968474;28;20201;-79
2021/08/29 12:20:08;;;;;;;0.50;0.50;;;18.50;99.90;;;;;;4967103;28;20220;-80
2021/08/29 12:22:37;;;;;;;0.60;0.60;;;18.50;99.90;;;;;;4968855;28;20169;-79
2021/08/29 12:25:04;;;;;;;0.60;0.60;;;18.40;99.90;;;;;;4967236;28;20276;-78
2021/08/29 12:27:30;;;;;;;0.60;0.60;;;18.10;99.90;;;;;;4967511;28;20181;-80
2021/08/29 12:30:01;;;;;;;0.70;0.70;;;17.90;99.90;;;;;;4968599;28;20699;-79
2021/08/29 12:32:28;;;;;;;0.73;0.60;;;18.10;99.90;;;;;;4968254;28;20833;-79
2021/08/29 12:34:58;;;;;;;0.70;0.65;;;18.20;99.90;;;;;;4969768;28;20185;-80
2021/08/29 12:37:26;;;;;;;0.77;0.77;;;18.20;99.90;;;;;;4968647;28;20195;-78
2021/08/29 12:40:02;;;;;;;0.50;0.50;;;18.30;99.90;;;;;;4969519;28;20209;-82
2021/08/29 12:42:31;;;;;;;1.05;0.70;;;18.70;99.90;;;;;;4969481;28;20185;-82
2021/08/29 12:44:58;;;;;;;0.60;0.60;;;19.10;99.90;;;;;;4966521;28;20240;-81
2021/08/29 12:47:25;;;;;;;0.57;0.57;;;19.10;99.90;;;;;;4966475;28;20181;-80
2021/08/29 12:49:51;;;;;;;0.50;0.50;;;18.80;99.90;;;;;;4966585;28;20515;-82
2021/08/29 12:52:26;;;;;;;0.52;0.52;;;18.80;99.90;;;;;;4967731;28;20181;-80
2021/08/29 12:54:52;;;;;;;0.82;0.70;;;18.70;99.90;;;;;;4965963;28;20204;-80
2021/08/29 12:57:25;;;;;;;0.77;0.77;;;18.70;99.90;;;;;;4966408;28;20196;-82
2021/08/29 12:59:58;;;;;;;0.70;0.70;;;18.80;99.90;;;;;;4974101;28;20624;-82
2021/08/29 13:02:29;;;;;;;0.95;0.80;;;18.80;99.90;;;;;;4965035;28;20201;-80
2021/08/29 13:04:56;;;;;;;0.70;0.70;;;18.60;99.90;;;;;;4964825;28;20281;-79
2021/08/29 13:07:21;;;;;;;0.75;0.75;;;18.40;99.90;;;;;;4967015;28;20655;-82
2021/08/29 13:09:47;;;;;;;0.80;0.80;;;18.10;99.90;;;;;;4967503;28;20295;-81
2021/08/29 13:12:30;;;;;;;1.00;0.85;;;18.00;99.90;;;;;;4966491;28;20185;-81